sensor_id;sensor_type;location;lat;lon;timestamp;P1;durP1;ratioP1;P2;durP2;ratioP2
15381;SDS011;7789;51.364;12.358;2023-11-18T00:01:42;3.93;;;2.03;;
15381;SDS011;7789;51.364;12.358;2023-11-18T00:06:46;3.53;;;2.30;;
15381;SDS011;7789;51.364;12.358;2023-11-18T00:11:50;2.97;;;2.50;;
15381;SDS011;7789;51.364;12.358;2023-11-18T00:16:53;2.47;;;2.07;;
15381;SDS011;7789;51.364;12.358;2023-11-18T00:21:58;2.70;;;1.97;;
15381;SDS011;7789;51.364;12.358;2023-11-18T00:27:01;2.07;;;1.60;;
15381;SDS011;7789;51.364;12.358;2023-11-18T00:32:07;2.17;;;1.73;;
15381;SDS011;7789;51.364;12.358;2023-11-18T00:37:12;2.47;;;1.90;;
15381;SDS011;7789;51.364;12.358;2023-11-18T00:42:15;2.33;;;1.87;;
15381;SDS011;7789;51.364;12.358;2023-11-18T00:47:19;1.90;;;1.70;;
15381;SDS011;7789;51.364;12.358;2023-11-18T00:52:25;1.97;;;1.47;;
15381;SDS011;7789;51.364;12.358;2023-11-18T00:57:28;1.67;;;1.40;;
15381;SDS011;7789;51.364;12.358;2023-11-18T01:02:33;1.40;;;1.30;;
15381;SDS011;7789;51.364;12.358;2023-11-18T01:07:38;2.50;;;1.27;;
15381;SDS011;7789;51.364;12.358;2023-11-18T01:12:43;1.37;;;1.27;;
15381;SDS011;7789;51.364;12.358;2023-11-18T01:17:47;1.70;;;1.30;;
15381;SDS011;7789;51.364;12.358;2023-11-18T01:22:51;2.23;;;1.27;;
15381;SDS011;7789;51.364;12.358;2023-11-18T01:27:55;3.07;;;1.40;;
15381;SDS011;7789;51.364;12.358;2023-11-18T01:32:58;1.70;;;1.40;;
15381;SDS011;7789;51.364;12.358;2023-11-18T01:38:04;1.93;;;1.40;;
15381;SDS011;7789;51.364;12.358;2023-11-18T01:43:08;2.47;;;1.40;;
15381;SDS011;7789;51.364;12.358;2023-11-18T01:48:14;1.30;;;1.20;;
15381;SDS011;7789;51.364;12.358;2023-11-18T01:53:19;3.57;;;1.47;;
15381;SDS011;7789;51.364;12.358;2023-11-18T01:58:22;1.20;;;1.10;;
15381;SDS011;7789;51.364;12.358;2023-11-18T02:03:27;1.50;;;1.40;;
15381;SDS011;7789;51.364;12.358;2023-11-18T02:08:34;2.47;;;1.53;;
15381;SDS011;7789;51.364;12.358;2023-11-18T02:13:38;1.77;;;1.40;;
15381;SDS011;7789;51.364;12.358;2023-11-18T02:18:43;1.77;;;1.50;;
15381;SDS011;7789;51.364;12.358;2023-11-18T02:23:52;2.50;;;1.73;;
15381;SDS011;7789;51.364;12.358;2023-11-18T02:28:57;4.43;;;1.50;;
15381;SDS011;7789;51.364;12.358;2023-11-18T02:34:01;1.90;;;1.70;;
15381;SDS011;7789;51.364;12.358;2023-11-18T02:39:10;2.10;;;1.90;;
15381;SDS011;7789;51.364;12.358;2023-11-18T02:44:20;3.03;;;1.63;;
15381;SDS011;7789;51.364;12.358;2023-11-18T02:49:27;2.30;;;1.70;;
15381;SDS011;7789;51.364;12.358;2023-11-18T02:54:32;3.33;;;1.80;;
15381;SDS011;7789;51.364;12.358;2023-11-18T02:59:37;1.87;;;1.67;;
15381;SDS011;7789;51.364;12.358;2023-11-18T03:04:40;3.43;;;2.00;;
15381;SDS011;7789;51.364;12.358;2023-11-18T03:09:45;2.20;;;2.00;;
15381;SDS011;7789;51.364;12.358;2023-11-18T03:14:51;3.47;;;2.10;;
15381;SDS011;7789;51.364;12.358;2023-11-18T03:19:55;3.70;;;2.10;;
15381;SDS011;7789;51.364;12.358;2023-11-18T03:24:59;2.07;;;1.87;;
15381;SDS011;7789;51.364;12.358;2023-11-18T03:30:21;3.60;;;2.40;;
15381;SDS011;7789;51.364;12.358;2023-11-18T03:35:24;2.23;;;1.90;;
15381;SDS011;7789;51.364;12.358;2023-11-18T03:40:27;2.73;;;2.13;;
15381;SDS011;7789;51.364;12.358;2023-11-18T03:45:32;4.17;;;2.40;;
15381;SDS011;7789;51.364;12.358;2023-11-18T03:50:37;3.47;;;2.10;;
15381;SDS011;7789;51.364;12.358;2023-11-18T03:55:40;3.53;;;2.27;;
15381;SDS011;7789;51.364;12.358;2023-11-18T04:00:45;3.60;;;2.37;;
15381;SDS011;7789;51.364;12.358;2023-11-18T04:05:48;6.13;;;2.50;;
15381;SDS011;7789;51.364;12.358;2023-11-18T04:10:52;2.90;;;2.00;;
15381;SDS011;7789;51.364;12.358;2023-11-18T04:15:56;3.27;;;2.60;;
15381;SDS011;7789;51.364;12.358;2023-11-18T04:21:00;3.83;;;2.60;;
15381;SDS011;7789;51.364;12.358;2023-11-18T04:26:03;3.77;;;3.00;;
15381;SDS011;7789;51.364;12.358;2023-11-18T04:31:08;4.93;;;3.60;;
15381;SDS011;7789;51.364;12.358;2023-11-18T04:36:12;3.80;;;3.20;;
15381;SDS011;7789;51.364;12.358;2023-11-18T04:41:17;4.57;;;3.70;;
15381;SDS011;7789;51.364;12.358;2023-11-18T04:46:22;4.10;;;3.40;;
15381;SDS011;7789;51.364;12.358;2023-11-18T04:51:25;5.57;;;4.33;;
15381;SDS011;7789;51.364;12.358;2023-11-18T04:56:28;5.03;;;4.07;;
15381;SDS011;7789;51.364;12.358;2023-11-18T05:01:33;5.53;;;3.60;;
15381;SDS011;7789;51.364;12.358;2023-11-18T05:06:36;4.57;;;3.93;;
15381;SDS011;7789;51.364;12.358;2023-11-18T05:11:40;5.60;;;4.13;;
15381;SDS011;7789;51.364;12.358;2023-11-18T05:16:45;4.40;;;3.73;;
15381;SDS011;7789;51.364;12.358;2023-11-18T05:21:50;4.80;;;4.27;;
15381;SDS011;7789;51.364;12.358;2023-11-18T05:26:53;6.20;;;4.47;;
15381;SDS011;7789;51.364;12.358;2023-11-18T05:31:58;6.20;;;4.33;;
15381;SDS011;7789;51.364;12.358;2023-11-18T05:37:02;6.03;;;4.90;;
15381;SDS011;7789;51.364;12.358;2023-11-18T05:42:05;6.40;;;4.63;;
15381;SDS011;7789;51.364;12.358;2023-11-18T05:47:11;6.73;;;4.67;;
15381;SDS011;7789;51.364;12.358;2023-11-18T05:52:15;7.13;;;5.63;;
15381;SDS011;7789;51.364;12.358;2023-11-18T05:57:19;5.77;;;5.17;;
15381;SDS011;7789;51.364;12.358;2023-11-18T06:02:30;6.73;;;6.03;;
15381;SDS011;7789;51.364;12.358;2023-11-18T06:07:33;7.63;;;6.37;;
15381;SDS011;7789;51.364;12.358;2023-11-18T06:12:37;8.93;;;6.87;;
15381;SDS011;7789;51.364;12.358;2023-11-18T06:17:44;8.67;;;6.80;;
15381;SDS011;7789;51.364;12.358;2023-11-18T06:22:57;9.60;;;7.97;;
15381;SDS011;7789;51.364;12.358;2023-11-18T06:28:04;11.47;;;8.27;;
15381;SDS011;7789;51.364;12.358;2023-11-18T06:33:11;11.60;;;8.23;;
15381;SDS011;7789;51.364;12.358;2023-11-18T06:38:14;11.77;;;8.47;;
15381;SDS011;7789;51.364;12.358;2023-11-18T06:43:20;12.60;;;8.73;;
15381;SDS011;7789;51.364;12.358;2023-11-18T06:48:25;10.00;;;8.00;;
15381;SDS011;7789;51.364;12.358;2023-11-18T06:53:28;12.83;;;9.30;;
15381;SDS011;7789;51.364;12.358;2023-11-18T06:58:32;11.87;;;9.43;;
15381;SDS011;7789;51.364;12.358;2023-11-18T07:03:37;13.23;;;10.23;;
15381;SDS011;7789;51.364;12.358;2023-11-18T07:08:42;13.37;;;10.57;;
15381;SDS011;7789;51.364;12.358;2023-11-18T07:13:46;11.13;;;9.07;;
15381;SDS011;7789;51.364;12.358;2023-11-18T07:18:52;14.90;;;11.00;;
15381;SDS011;7789;51.364;12.358;2023-11-18T07:23:55;13.53;;;10.13;;
15381;SDS011;7789;51.364;12.358;2023-11-18T07:28:59;19.37;;;10.70;;
15381;SDS011;7789;51.364;12.358;2023-11-18T07:34:04;14.47;;;11.53;;
15381;SDS011;7789;51.364;12.358;2023-11-18T07:39:08;16.27;;;10.97;;
15381;SDS011;7789;51.364;12.358;2023-11-18T07:44:17;14.13;;;11.10;;
15381;SDS011;7789;51.364;12.358;2023-11-18T07:49:23;16.70;;;11.60;;
15381;SDS011;7789;51.364;12.358;2023-11-18T07:54:28;14.67;;;10.97;;
15381;SDS011;7789;51.364;12.358;2023-11-18T07:59:31;13.20;;;9.50;;
15381;SDS011;7789;51.364;12.358;2023-11-18T08:04:36;12.83;;;9.37;;
15381;SDS011;7789;51.364;12.358;2023-11-18T08:09:39;11.40;;;9.40;;
15381;SDS011;7789;51.364;12.358;2023-11-18T08:14:44;11.07;;;8.50;;
15381;SDS011;7789;51.364;12.358;2023-11-18T08:19:50;11.73;;;9.60;;
15381;SDS011;7789;51.364;12.358;2023-11-18T08:24:53;11.20;;;9.20;;
15381;SDS011;7789;51.364;12.358;2023-11-18T08:29:58;12.00;;;9.53;;
15381;SDS011;7789;51.364;12.358;2023-11-18T08:35:03;12.53;;;8.93;;
15381;SDS011;7789;51.364;12.358;2023-11-18T08:40:09;12.23;;;8.70;;
15381;SDS011;7789;51.364;12.358;2023-11-18T08:45:16;11.90;;;9.13;;
15381;SDS011;7789;51.364;12.358;2023-11-18T08:50:25;12.07;;;9.63;;
15381;SDS011;7789;51.364;12.358;2023-11-18T08:55:30;12.80;;;9.23;;
15381;SDS011;7789;51.364;12.358;2023-11-18T09:00:54;11.93;;;9.47;;
15381;SDS011;7789;51.364;12.358;2023-11-18T09:06:08;14.97;;;10.03;;
15381;SDS011;7789;51.364;12.358;2023-11-18T09:11:20;12.20;;;8.90;;
15381;SDS011;7789;51.364;12.358;2023-11-18T09:16:25;11.60;;;9.33;;
15381;SDS011;7789;51.364;12.358;2023-11-18T09:21:33;13.67;;;9.17;;
15381;SDS011;7789;51.364;12.358;2023-11-18T09:26:38;11.10;;;9.50;;
15381;SDS011;7789;51.364;12.358;2023-11-18T09:31:41;10.13;;;8.90;;
15381;SDS011;7789;51.364;12.358;2023-11-18T09:36:46;11.00;;;8.63;;
15381;SDS011;7789;51.364;12.358;2023-11-18T09:41:50;9.90;;;8.10;;
15381;SDS011;7789;51.364;12.358;2023-11-18T09:46:54;10.27;;;7.83;;
15381;SDS011;7789;51.364;12.358;2023-11-18T09:52:07;10.83;;;8.80;;
15381;SDS011;7789;51.364;12.358;2023-11-18T09:57:21;9.70;;;8.10;;
15381;SDS011;7789;51.364;12.358;2023-11-18T10:02:31;9.30;;;8.13;;
15381;SDS011;7789;51.364;12.358;2023-11-18T10:07:36;8.87;;;7.97;;
15381;SDS011;7789;51.364;12.358;2023-11-18T10:12:41;11.67;;;8.33;;
15381;SDS011;7789;51.364;12.358;2023-11-18T10:17:46;10.87;;;7.50;;
15381;SDS011;7789;51.364;12.358;2023-11-18T10:23:09;22.20;;;9.07;;
15381;SDS011;7789;51.364;12.358;2023-11-18T10:28:23;8.33;;;7.00;;
15381;SDS011;7789;51.364;12.358;2023-11-18T10:33:30;11.17;;;5.90;;
15381;SDS011;7789;51.364;12.358;2023-11-18T10:38:37;7.83;;;5.50;;
15381;SDS011;7789;51.364;12.358;2023-11-18T10:43:46;6.10;;;4.77;;
15381;SDS011;7789;51.364;12.358;2023-11-18T10:48:50;5.60;;;5.00;;
15381;SDS011;7789;51.364;12.358;2023-11-18T10:53:55;6.23;;;4.77;;
15381;SDS011;7789;51.364;12.358;2023-11-18T10:59:04;6.03;;;5.33;;
15381;SDS011;7789;51.364;12.358;2023-11-18T11:04:08;6.30;;;5.53;;
15381;SDS011;7789;51.364;12.358;2023-11-18T11:09:14;7.60;;;5.90;;
15381;SDS011;7789;51.364;12.358;2023-11-18T11:14:20;7.00;;;5.67;;
15381;SDS011;7789;51.364;12.358;2023-11-18T11:19:26;8.90;;;5.83;;
15381;SDS011;7789;51.364;12.358;2023-11-18T11:24:45;6.07;;;5.47;;
15381;SDS011;7789;51.364;12.358;2023-11-18T11:29:59;7.33;;;5.67;;
15381;SDS011;7789;51.364;12.358;2023-11-18T11:35:14;7.93;;;6.63;;
15381;SDS011;7789;51.364;12.358;2023-11-18T11:40:25;10.10;;;6.37;;
15381;SDS011;7789;51.364;12.358;2023-11-18T11:45:31;10.80;;;7.87;;
15381;SDS011;7789;51.364;12.358;2023-11-18T11:50:36;8.33;;;6.13;;
15381;SDS011;7789;51.364;12.358;2023-11-18T11:55:47;8.17;;;7.33;;
15381;SDS011;7789;51.364;12.358;2023-11-18T12:00:54;7.67;;;6.63;;
15381;SDS011;7789;51.364;12.358;2023-11-18T12:05:57;8.93;;;6.27;;
15381;SDS011;7789;51.364;12.358;2023-11-18T12:11:15;7.20;;;5.70;;
15381;SDS011;7789;51.364;12.358;2023-11-18T12:16:22;6.67;;;6.03;;
15381;SDS011;7789;51.364;12.358;2023-11-18T12:22:03;8.57;;;5.93;;
15381;SDS011;7789;51.364;12.358;2023-11-18T12:27:16;6.00;;;5.37;;
15381;SDS011;7789;51.364;12.358;2023-11-18T12:32:59;6.97;;;5.80;;
15381;SDS011;7789;51.364;12.358;2023-11-18T12:38:18;7.80;;;5.03;;
15381;SDS011;7789;51.364;12.358;2023-11-18T12:43:42;6.17;;;4.80;;
15381;SDS011;7789;51.364;12.358;2023-11-18T12:48:52;5.67;;;4.80;;
15381;SDS011;7789;51.364;12.358;2023-11-18T12:54:01;8.47;;;5.67;;
15381;SDS011;7789;51.364;12.358;2023-11-18T12:59:10;7.07;;;5.23;;
15381;SDS011;7789;51.364;12.358;2023-11-18T13:04:14;6.80;;;5.20;;
15381;SDS011;7789;51.364;12.358;2023-11-18T13:09:18;4.27;;;3.87;;
15381;SDS011;7789;51.364;12.358;2023-11-18T13:14:30;5.30;;;4.37;;
15381;SDS011;7789;51.364;12.358;2023-11-18T13:19:37;5.63;;;4.90;;
15381;SDS011;7789;51.364;12.358;2023-11-18T13:24:42;6.43;;;5.33;;
15381;SDS011;7789;51.364;12.358;2023-11-18T13:29:48;6.53;;;4.97;;
15381;SDS011;7789;51.364;12.358;2023-11-18T13:34:56;6.87;;;5.67;;
15381;SDS011;7789;51.364;12.358;2023-11-18T13:40:00;7.20;;;5.40;;
15381;SDS011;7789;51.364;12.358;2023-11-18T13:45:11;5.67;;;4.87;;
15381;SDS011;7789;51.364;12.358;2023-11-18T13:50:34;5.17;;;4.30;;
15381;SDS011;7789;51.364;12.358;2023-11-18T13:55:38;6.40;;;4.83;;
15381;SDS011;7789;51.364;12.358;2023-11-18T14:00:44;6.97;;;5.27;;
15381;SDS011;7789;51.364;12.358;2023-11-18T14:05:50;6.67;;;5.00;;
15381;SDS011;7789;51.364;12.358;2023-11-18T14:10:54;5.90;;;4.97;;
15381;SDS011;7789;51.364;12.358;2023-11-18T14:16:06;7.13;;;5.20;;
15381;SDS011;7789;51.364;12.358;2023-11-18T14:21:11;9.13;;;6.80;;
15381;SDS011;7789;51.364;12.358;2023-11-18T14:26:16;8.90;;;6.50;;
15381;SDS011;7789;51.364;12.358;2023-11-18T14:31:23;8.33;;;5.50;;
15381;SDS011;7789;51.364;12.358;2023-11-18T14:36:29;6.20;;;5.30;;
15381;SDS011;7789;51.364;12.358;2023-11-18T14:41:33;10.20;;;7.00;;
15381;SDS011;7789;51.364;12.358;2023-11-18T14:46:38;10.50;;;6.60;;
15381;SDS011;7789;51.364;12.358;2023-11-18T14:51:43;9.17;;;6.50;;
15381;SDS011;7789;51.364;12.358;2023-11-18T14:56:46;11.17;;;7.57;;
15381;SDS011;7789;51.364;12.358;2023-11-18T15:01:53;7.77;;;5.83;;
15381;SDS011;7789;51.364;12.358;2023-11-18T15:06:59;9.23;;;5.63;;
15381;SDS011;7789;51.364;12.358;2023-11-18T15:12:03;7.30;;;5.83;;
15381;SDS011;7789;51.364;12.358;2023-11-18T15:17:12;8.40;;;5.67;;
15381;SDS011;7789;51.364;12.358;2023-11-18T15:22:15;6.43;;;5.27;;
15381;SDS011;7789;51.364;12.358;2023-11-18T15:27:19;8.47;;;5.90;;
15381;SDS011;7789;51.364;12.358;2023-11-18T15:32:23;10.57;;;5.43;;
15381;SDS011;7789;51.364;12.358;2023-11-18T15:37:28;7.77;;;5.57;;
15381;SDS011;7789;51.364;12.358;2023-11-18T15:42:31;7.23;;;5.67;;
15381;SDS011;7789;51.364;12.358;2023-11-18T15:47:40;7.97;;;5.63;;
15381;SDS011;7789;51.364;12.358;2023-11-18T15:52:45;10.73;;;7.30;;
15381;SDS011;7789;51.364;12.358;2023-11-18T15:57:50;7.77;;;6.97;;
15381;SDS011;7789;51.364;12.358;2023-11-18T16:02:59;7.33;;;5.90;;
15381;SDS011;7789;51.364;12.358;2023-11-18T16:08:06;7.60;;;5.80;;
15381;SDS011;7789;51.364;12.358;2023-11-18T16:13:10;8.50;;;6.70;;
15381;SDS011;7789;51.364;12.358;2023-11-18T16:18:14;7.43;;;6.53;;
15381;SDS011;7789;51.364;12.358;2023-11-18T16:23:18;9.00;;;6.33;;
15381;SDS011;7789;51.364;12.358;2023-11-18T16:28:23;9.60;;;6.50;;
15381;SDS011;7789;51.364;12.358;2023-11-18T16:33:28;7.93;;;6.70;;
15381;SDS011;7789;51.364;12.358;2023-11-18T16:38:31;8.67;;;6.10;;
15381;SDS011;7789;51.364;12.358;2023-11-18T16:43:35;9.73;;;6.70;;
15381;SDS011;7789;51.364;12.358;2023-11-18T16:48:39;6.50;;;5.40;;
15381;SDS011;7789;51.364;12.358;2023-11-18T16:53:43;8.27;;;5.60;;
15381;SDS011;7789;51.364;12.358;2023-11-18T16:58:46;6.47;;;5.40;;
15381;SDS011;7789;51.364;12.358;2023-11-18T17:03:51;7.93;;;5.60;;
15381;SDS011;7789;51.364;12.358;2023-11-18T17:08:54;7.00;;;5.67;;
15381;SDS011;7789;51.364;12.358;2023-11-18T17:13:57;8.93;;;6.63;;
15381;SDS011;7789;51.364;12.358;2023-11-18T17:19:02;9.57;;;6.43;;
15381;SDS011;7789;51.364;12.358;2023-11-18T17:24:06;8.73;;;6.13;;
15381;SDS011;7789;51.364;12.358;2023-11-18T17:29:10;7.50;;;5.20;;
15381;SDS011;7789;51.364;12.358;2023-11-18T17:34:16;6.80;;;4.77;;
15381;SDS011;7789;51.364;12.358;2023-11-18T17:39:20;8.20;;;5.50;;
15381;SDS011;7789;51.364;12.358;2023-11-18T17:44:25;8.80;;;5.43;;
15381;SDS011;7789;51.364;12.358;2023-11-18T17:49:31;6.93;;;4.50;;
15381;SDS011;7789;51.364;12.358;2023-11-18T17:54:35;6.33;;;4.10;;
15381;SDS011;7789;51.364;12.358;2023-11-18T17:59:40;5.97;;;4.40;;
15381;SDS011;7789;51.364;12.358;2023-11-18T18:04:49;4.30;;;3.27;;
15381;SDS011;7789;51.364;12.358;2023-11-18T18:09:52;4.37;;;3.90;;
15381;SDS011;7789;51.364;12.358;2023-11-18T18:14:56;4.90;;;3.70;;
15381;SDS011;7789;51.364;12.358;2023-11-18T18:20:05;6.63;;;3.50;;
15381;SDS011;7789;51.364;12.358;2023-11-18T18:25:10;4.17;;;3.47;;
15381;SDS011;7789;51.364;12.358;2023-11-18T18:30:14;5.53;;;4.03;;
15381;SDS011;7789;51.364;12.358;2023-11-18T18:35:19;5.23;;;3.73;;
15381;SDS011;7789;51.364;12.358;2023-11-18T18:40:22;5.33;;;3.40;;
15381;SDS011;7789;51.364;12.358;2023-11-18T18:45:26;4.50;;;3.60;;
15381;SDS011;7789;51.364;12.358;2023-11-18T18:50:31;6.50;;;3.90;;
15381;SDS011;7789;51.364;12.358;2023-11-18T18:55:40;4.20;;;3.80;;
15381;SDS011;7789;51.364;12.358;2023-11-18T19:00:49;4.90;;;3.90;;
15381;SDS011;7789;51.364;12.358;2023-11-18T19:05:55;5.63;;;4.07;;
15381;SDS011;7789;51.364;12.358;2023-11-18T19:10:59;5.63;;;4.67;;
15381;SDS011;7789;51.364;12.358;2023-11-18T19:16:03;5.60;;;4.50;;
15381;SDS011;7789;51.364;12.358;2023-11-18T19:21:15;5.60;;;4.43;;
15381;SDS011;7789;51.364;12.358;2023-11-18T19:26:22;5.93;;;4.73;;
15381;SDS011;7789;51.364;12.358;2023-11-18T19:31:26;8.20;;;5.17;;
15381;SDS011;7789;51.364;12.358;2023-11-18T19:36:31;6.00;;;4.40;;
15381;SDS011;7789;51.364;12.358;2023-11-18T19:41:36;5.80;;;5.20;;
15381;SDS011;7789;51.364;12.358;2023-11-18T19:46:39;11.77;;;5.57;;
15381;SDS011;7789;51.364;12.358;2023-11-18T19:51:45;6.97;;;5.03;;
15381;SDS011;7789;51.364;12.358;2023-11-18T19:56:49;6.47;;;5.83;;
15381;SDS011;7789;51.364;12.358;2023-11-18T20:01:54;6.90;;;5.70;;
15381;SDS011;7789;51.364;12.358;2023-11-18T20:07:02;6.80;;;6.10;;
15381;SDS011;7789;51.364;12.358;2023-11-18T20:12:08;8.37;;;6.50;;
15381;SDS011;7789;51.364;12.358;2023-11-18T20:17:11;9.10;;;7.20;;
15381;SDS011;7789;51.364;12.358;2023-11-18T20:22:16;8.60;;;6.77;;
15381;SDS011;7789;51.364;12.358;2023-11-18T20:27:20;7.60;;;6.27;;
15381;SDS011;7789;51.364;12.358;2023-11-18T20:32:23;8.30;;;6.80;;
15381;SDS011;7789;51.364;12.358;2023-11-18T20:37:28;7.80;;;6.90;;
15381;SDS011;7789;51.364;12.358;2023-11-18T20:42:33;9.27;;;7.07;;
15381;SDS011;7789;51.364;12.358;2023-11-18T20:47:40;7.33;;;6.10;;
15381;SDS011;7789;51.364;12.358;2023-11-18T20:52:45;9.93;;;6.57;;
15381;SDS011;7789;51.364;12.358;2023-11-18T20:57:51;8.33;;;7.00;;
15381;SDS011;7789;51.364;12.358;2023-11-18T21:02:54;10.13;;;8.93;;
15381;SDS011;7789;51.364;12.358;2023-11-18T21:08:00;14.37;;;11.07;;
15381;SDS011;7789;51.364;12.358;2023-11-18T21:13:03;11.23;;;9.63;;
15381;SDS011;7789;51.364;12.358;2023-11-18T21:18:09;8.17;;;7.03;;
15381;SDS011;7789;51.364;12.358;2023-11-18T21:23:15;7.90;;;6.73;;
15381;SDS011;7789;51.364;12.358;2023-11-18T21:28:21;6.60;;;5.60;;
15381;SDS011;7789;51.364;12.358;2023-11-18T21:33:26;9.30;;;5.67;;
15381;SDS011;7789;51.364;12.358;2023-11-18T21:38:31;6.53;;;5.80;;
15381;SDS011;7789;51.364;12.358;2023-11-18T21:43:35;6.50;;;5.10;;
15381;SDS011;7789;51.364;12.358;2023-11-18T21:48:40;6.60;;;5.10;;
15381;SDS011;7789;51.364;12.358;2023-11-18T21:53:45;5.30;;;4.50;;
15381;SDS011;7789;51.364;12.358;2023-11-18T21:58:48;5.63;;;4.03;;
15381;SDS011;7789;51.364;12.358;2023-11-18T22:03:52;5.37;;;4.17;;
15381;SDS011;7789;51.364;12.358;2023-11-18T22:09:01;4.80;;;4.23;;
15381;SDS011;7789;51.364;12.358;2023-11-18T22:14:04;6.33;;;4.40;;
15381;SDS011;7789;51.364;12.358;2023-11-18T22:19:09;5.57;;;4.03;;
15381;SDS011;7789;51.364;12.358;2023-11-18T22:24:17;4.70;;;4.30;;
15381;SDS011;7789;51.364;12.358;2023-11-18T22:29:22;5.70;;;4.40;;
15381;SDS011;7789;51.364;12.358;2023-11-18T22:34:25;4.57;;;3.93;;
15381;SDS011;7789;51.364;12.358;2023-11-18T22:39:31;5.70;;;3.70;;
15381;SDS011;7789;51.364;12.358;2023-11-18T22:44:36;5.67;;;3.80;;
15381;SDS011;7789;51.364;12.358;2023-11-18T22:49:44;4.80;;;3.73;;
15381;SDS011;7789;51.364;12.358;2023-11-18T22:54:49;3.70;;;3.30;;
15381;SDS011;7789;51.364;12.358;2023-11-18T22:59:52;4.37;;;3.47;;
15381;SDS011;7789;51.364;12.358;2023-11-18T23:04:57;4.63;;;4.00;;
15381;SDS011;7789;51.364;12.358;2023-11-18T23:10:05;6.00;;;4.20;;
15381;SDS011;7789;51.364;12.358;2023-11-18T23:15:11;4.80;;;3.57;;
15381;SDS011;7789;51.364;12.358;2023-11-18T23:20:15;4.27;;;3.73;;
15381;SDS011;7789;51.364;12.358;2023-11-18T23:25:21;2.93;;;2.63;;
15381;SDS011;7789;51.364;12.358;2023-11-18T23:30:26;4.43;;;3.57;;
15381;SDS011;7789;51.364;12.358;2023-11-18T23:35:30;4.83;;;3.10;;
15381;SDS011;7789;51.364;12.358;2023-11-18T23:40:37;3.10;;;2.80;;
15381;SDS011;7789;51.364;12.358;2023-11-18T23:45:43;3.30;;;2.80;;
15381;SDS011;7789;51.364;12.358;2023-11-18T23:50:46;3.23;;;2.33;;
15381;SDS011;7789;51.364;12.358;2023-11-18T23:55:51;3.03;;;2.43;;
